Time;durP1;ratioP1;P1;durP2;ratioP2;P2;SDS_P1;SDS_P2;PMS_P1;PMS_P2;Temp;Humidity;BMP_temperature;BMP_pressure;BME280_temperature;BME280_humidity;BME280_pressure;Samples;Min_cycle;Max_cycle;Signal;HPM_P1;HPM_P2
2023/01/06 00:01:32;;;;;;;7.05;3.45;;;6.10;68.90;;;;;;6057749;23;115073;-83
2023/01/06 00:04:00;;;;;;;6.40;3.85;;;6.10;68.70;;;;;;6081841;23;114663;-83
2023/01/06 00:06:28;;;;;;;8.07;4.05;;;6.20;68.80;;;;;;6083023;23;114442;-83
2023/01/06 00:09:01;;;;;;;8.00;4.35;;;6.20;68.60;;;;;;6059130;23;115620;-84
2023/01/06 00:11:31;;;;;;;10.57;4.73;;;6.20;68.70;;;;;;6082086;23;115323;-84
2023/01/06 00:14:01;;;;;;;7.97;5.00;;;6.20;68.70;;;;;;6061551;23;117343;-83
2023/01/06 00:16:30;;;;;;;6.93;3.83;;;6.20;68.80;;;;;;6106080;23;114262;-83
2023/01/06 00:18:58;;;;;;;12.48;4.10;;;6.20;68.80;;;;;;6039968;23;114220;-83
2023/01/06 00:21:26;;;;;;;6.70;3.58;;;6.20;68.80;;;;;;6081832;23;115092;-83
2023/01/06 00:23:53;;;;;;;6.00;3.55;;;6.20;68.40;;;;;;6082153;23;115290;-83
2023/01/06 00:26:20;;;;;;;6.20;3.05;;;6.10;68.20;;;;;;6058586;23;114283;-83
2023/01/06 00:28:54;;;;;;;6.15;3.30;;;6.10;68.30;;;;;;6059431;23;114327;-83
2023/01/06 00:31:24;;;;;;;5.85;2.63;;;6.00;68.50;;;;;;6032753;23;114960;-83
2023/01/06 00:33:53;;;;;;;6.82;2.60;;;6.00;68.40;;;;;;6081937;23;114266;-82
2023/01/06 00:36:21;;;;;;;4.25;2.40;;;6.00;68.20;;;;;;6058955;23;114496;-82
2023/01/06 00:38:49;;;;;;;5.85;2.42;;;6.00;68.30;;;;;;6085224;23;114192;-83
2023/01/06 00:44:04;;;;;;;4.65;2.15;;;6.00;67.90;;;;;;6083457;23;114709;-83
2023/01/06 00:46:33;;;;;;;5.78;2.65;;;5.90;67.50;;;;;;6083580;23;114823;-83
2023/01/06 00:49:01;;;;;;;4.60;2.22;;;5.80;67.50;;;;;;6058767;23;114629;-83
2023/01/06 00:51:35;;;;;;;4.97;1.92;;;5.80;67.50;;;;;;6081953;23;114970;-83
2023/01/06 00:54:02;;;;;;;5.93;2.28;;;5.80;67.50;;;;;;6081690;23;114793;-83
2023/01/06 00:56:30;;;;;;;5.00;2.30;;;5.80;67.50;;;;;;6010139;23;114482;-82
2023/01/06 00:58:57;;;;;;;5.32;2.00;;;5.80;67.40;;;;;;6082222;23;114289;-83
2023/01/06 01:01:27;;;;;;;4.72;2.00;;;5.80;67.30;;;;;;6056792;23;117024;-82
2023/01/06 01:03:57;;;;;;;3.30;1.80;;;5.90;67.10;;;;;;6081989;23;115079;-83
2023/01/06 01:06:25;;;;;;;5.45;2.33;;;5.90;67.20;;;;;;6034931;23;114264;-83
2023/01/06 01:08:56;;;;;;;4.05;1.90;;;5.90;67.20;;;;;;6058123;23;114750;-83
2023/01/06 01:14:11;;;;;;;3.85;1.90;;;6.00;66.70;;;;;;6060848;23;114593;-82
2023/01/06 01:16:39;;;;;;;7.28;2.47;;;6.00;66.60;;;;;;6033952;23;114430;-82
2023/01/06 01:19:06;;;;;;;6.18;2.13;;;6.00;66.60;;;;;;6084193;23;114302;-82
2023/01/06 01:21:33;;;;;;;7.95;3.85;;;6.00;66.50;;;;;;6081462;23;115289;-82
2023/01/06 01:24:01;;;;;;;5.43;2.13;;;6.10;66.30;;;;;;6081042;23;115091;-83
2023/01/06 01:26:28;;;;;;;5.53;2.50;;;6.10;66.20;;;;;;6082168;23;114421;-83
2023/01/06 01:28:56;;;;;;;4.07;2.15;;;6.10;66.20;;;;;;6084095;23;114346;-83
2023/01/06 01:31:23;;;;;;;5.13;2.55;;;6.10;66.20;;;;;;6081345;23;115081;-83
2023/01/06 01:33:50;;;;;;;4.38;1.98;;;6.10;66.10;;;;;;6080871;23;117763;-83
2023/01/06 01:36:17;;;;;;;5.50;2.70;;;6.10;66.00;;;;;;6081627;23;114332;-83
2023/01/06 01:38:45;;;;;;;5.95;2.60;;;6.10;66.30;;;;;;6058655;23;114406;-83
2023/01/06 01:41:18;;;;;;;6.38;2.65;;;6.00;66.00;;;;;;6057454;23;115288;-83
2023/01/06 01:43:48;;;;;;;5.90;2.30;;;6.10;66.20;;;;;;6009449;23;114854;-83
2023/01/06 01:46:23;;;;;;;5.85;2.60;;;6.10;66.00;;;;;;5987254;23;114467;-83
2023/01/06 01:49:15;;;;;;;5.63;3.00;;;6.00;66.30;;;;;;6036167;23;115051;-82
2023/01/06 01:51:45;;;;;;;4.85;2.00;;;6.10;66.30;;;;;;6016675;23;119735;-83
2023/01/06 01:54:18;;;;;;;5.55;2.42;;;6.00;66.20;;;;;;6081434;23;115953;-83
2023/01/06 01:57:05;;;;;;;4.28;2.45;;;6.00;66.40;;;;;;6012077;23;114740;-83
2023/01/06 01:59:33;;;;;;;6.22;3.28;;;5.90;66.40;;;;;;6060313;23;114761;-82
2023/01/06 02:02:00;;;;;;;4.90;2.38;;;5.90;66.70;;;;;;6090707;23;115253;-82
2023/01/06 02:04:28;;;;;;;7.30;3.00;;;5.90;66.60;;;;;;6076042;23;114297;-83
2023/01/06 02:06:56;;;;;;;5.13;2.50;;;5.80;66.60;;;;;;6058974;23;114499;-83
2023/01/06 02:09:41;;;;;;;5.80;2.95;;;5.80;66.80;;;;;;6034317;23;114564;-83
2023/01/06 02:12:09;;;;;;;4.28;2.50;;;5.80;67.00;;;;;;6036257;23;115127;-83
2023/01/06 02:14:37;;;;;;;4.40;2.30;;;5.80;66.90;;;;;;6033122;23;114467;-83
2023/01/06 02:17:30;;;;;;;7.32;2.90;;;5.80;66.90;;;;;;6058554;23;114305;-83
2023/01/06 02:20:56;;;;;;;6.72;2.88;;;5.80;67.10;;;;;;6035268;23;114633;-84
2023/01/06 02:23:47;;;;;;;5.30;2.97;;;5.80;67.00;;;;;;5992865;23;115220;-83
2023/01/06 02:26:47;;;;;;;5.20;2.88;;;5.70;67.00;;;;;;6078205;23;118429;-83
2023/01/06 02:29:58;;;;;;;5.32;2.47;;;5.70;67.00;;;;;;6058178;23;114602;-82
2023/01/06 02:32:45;;;;;;;5.05;2.80;;;5.70;67.20;;;;;;6082440;23;114301;-83
2023/01/06 02:35:53;;;;;;;7.85;2.72;;;5.70;67.40;;;;;;6055399;23;118326;-83
2023/01/06 02:38:43;;;;;;;7.43;2.78;;;5.70;67.20;;;;;;6056851;23;114613;-83
2023/01/06 02:41:43;;;;;;;5.63;3.03;;;5.60;67.40;;;;;;6059594;23;114441;-83
2023/01/06 02:44:26;;;;;;;6.30;2.67;;;5.60;67.60;;;;;;6016643;23;114564;-82
2023/01/06 02:47:03;;;;;;;5.20;2.80;;;5.60;67.50;;;;;;6029343;23;115288;-83
2023/01/06 02:49:38;;;;;;;5.53;2.90;;;5.60;67.80;;;;;;6008695;23;118507;-82
2023/01/06 02:52:36;;;;;;;4.38;2.75;;;5.70;67.70;;;;;;6034919;23;114561;-82
2023/01/06 02:55:15;;;;;;;6.25;3.08;;;5.70;67.60;;;;;;6033491;23;114432;-82
2023/01/06 02:58:03;;;;;;;7.15;2.70;;;5.70;67.50;;;;;;6010868;23;115467;-82
2023/01/06 03:00:45;;;;;;;6.00;2.92;;;5.70;67.40;;;;;;6011920;23;114845;-82
2023/01/06 03:03:18;;;;;;;5.60;3.25;;;5.70;67.40;;;;;;6058413;23;114564;-83
2023/01/06 03:05:49;;;;;;;7.50;3.80;;;5.70;67.40;;;;;;6034166;23;114447;-83
2023/01/06 03:08:19;;;;;;;5.28;3.38;;;5.70;67.50;;;;;;6033074;23;115044;-83
2023/01/06 03:10:47;;;;;;;6.78;3.28;;;5.70;67.60;;;;;;6056298;23;114521;-82
2023/01/06 03:13:46;;;;;;;7.93;4.13;;;5.70;67.50;;;;;;6057347;23;114291;-83
2023/01/06 03:16:13;;;;;;;7.95;3.78;;;5.70;67.40;;;;;;6081383;23;114660;-82
2023/01/06 03:18:42;;;;;;;10.05;3.45;;;5.70;67.40;;;;;;6031720;23;115476;-82
2023/01/06 03:21:14;;;;;;;7.13;3.30;;;5.70;67.30;;;;;;6056249;23;114924;-82
2023/01/06 03:23:43;;;;;;;;;;;5.70;67.30;;;;;;6034945;23;114290;-82
2023/01/06 03:26:11;;;;;;;5.28;3.13;;;5.60;67.10;;;;;;6081088;23;114600;-82
2023/01/06 03:28:38;;;;;;;4.85;3.08;;;5.50;67.50;;;;;;6032015;23;115253;-83
2023/01/06 03:31:41;;;;;;;5.47;3.00;;;5.50;67.60;;;;;;6080092;23;114629;-82
2023/01/06 03:34:41;;;;;;;6.68;3.15;;;5.50;67.70;;;;;;6081313;23;114251;-82
2023/01/06 03:37:54;;;;;;;7.82;3.40;;;5.60;67.40;;;;;;6083757;23;114353;-83
2023/01/06 03:40:55;;;;;;;6.78;3.45;;;5.60;67.30;;;;;;6057518;23;115053;-83
2023/01/06 03:44:03;;;;;;;5.45;2.92;;;5.50;67.20;;;;;;6037909;23;114582;-83
2023/01/06 03:46:41;;;;;;;7.95;3.00;;;5.50;67.20;;;;;;6045127;23;114408;-83
2023/01/06 03:49:21;;;;;;;6.72;3.20;;;5.50;67.30;;;;;;6102285;23;114254;-83
2023/01/06 03:52:12;;;;;;;5.68;2.45;;;5.40;67.10;;;;;;6089177;23;114215;-83
2023/01/06 03:55:04;;;;;;;6.55;2.60;;;5.40;67.10;;;;;;6037887;23;115064;-83
2023/01/06 03:57:46;;;;;;;4.80;2.72;;;5.50;67.20;;;;;;6083139;23;114184;-83
2023/01/06 04:00:21;;;;;;;5.68;2.63;;;5.40;67.10;;;;;;6010452;23;114385;-83
2023/01/06 04:02:56;;;;;;;5.63;2.90;;;5.40;67.10;;;;;;6011933;23;118290;-83
2023/01/06 04:05:26;;;;;;;5.75;2.50;;;5.40;67.10;;;;;;5987539;23;115239;-83
2023/01/06 04:07:55;;;;;;;5.63;2.85;;;5.40;67.30;;;;;;6011286;23;114522;-84
2023/01/06 04:10:23;;;;;;;6.78;2.78;;;5.40;67.10;;;;;;6059869;23;114562;-84
2023/01/06 04:12:55;;;;;;;6.35;3.03;;;5.50;67.00;;;;;;6082064;23;115127;-84
2023/01/06 04:15:30;;;;;;;6.63;3.28;;;5.50;67.20;;;;;;6082094;23;116502;-84
2023/01/06 04:17:59;;;;;;;5.22;2.63;;;5.50;66.90;;;;;;6082695;23;114301;-83
2023/01/06 04:20:30;;;;;;;6.18;3.25;;;5.50;67.00;;;;;;6083149;23;114329;-84
2023/01/06 04:23:16;;;;;;;10.57;3.60;;;5.50;67.10;;;;;;6081873;23;114897;-83
2023/01/06 04:25:44;;;;;;;10.88;3.65;;;5.50;67.10;;;;;;6081562;23;114701;-84
2023/01/06 04:28:29;;;;;;;6.35;3.20;;;5.50;67.00;;;;;;6062115;23;114198;-84
2023/01/06 04:30:58;;;;;;;6.45;2.92;;;5.50;66.90;;;;;;6058678;23;114460;-84
2023/01/06 04:33:26;;;;;;;6.57;3.10;;;5.50;66.90;;;;;;6034106;23;115214;-85
2023/01/06 04:35:57;;;;;;;4.82;2.80;;;5.50;66.80;;;;;;6057276;23;117245;-83
2023/01/06 04:38:25;;;;;;;7.43;3.20;;;5.50;66.80;;;;;;6034513;23;114335;-83
2023/01/06 04:40:52;;;;;;;7.05;3.10;;;5.60;66.80;;;;;;6084429;23;115131;-83
2023/01/06 04:43:19;;;;;;;8.30;3.25;;;5.50;66.70;;;;;;6082200;23;115047;-83
2023/01/06 04:45:46;;;;;;;6.13;2.90;;;5.60;66.80;;;;;;6083360;23;114645;-83
2023/01/06 04:48:13;;;;;;;4.65;3.00;;;5.60;66.90;;;;;;6082621;23;114465;-84
2023/01/06 04:50:41;;;;;;;6.53;2.90;;;5.60;66.90;;;;;;6084384;23;114383;-82
2023/01/06 04:53:09;;;;;;;6.55;3.47;;;5.60;66.80;;;;;;6033315;23;115249;-83
2023/01/06 04:55:38;;;;;;;6.40;2.90;;;5.60;66.70;;;;;;6081735;23;114735;-82
2023/01/06 04:58:05;;;;;;;7.15;3.00;;;5.60;66.70;;;;;;6034245;23;114316;-82
2023/01/06 05:00:33;;;;;;;7.13;3.50;;;5.60;66.90;;;;;;6059015;23;114329;-83
2023/01/06 05:03:00;;;;;;;6.30;3.20;;;5.60;66.70;;;;;;6057532;23;115097;-83
2023/01/06 05:05:27;;;;;;;6.13;3.03;;;5.50;66.80;;;;;;6057505;23;115278;-83
2023/01/06 05:07:55;;;;;;;5.15;2.97;;;5.50;67.00;;;;;;6083883;23;114160;-83
2023/01/06 05:10:22;;;;;;;7.70;3.17;;;5.60;66.80;;;;;;6082767;23;114340;-83
2023/01/06 05:12:49;;;;;;;6.68;2.90;;;5.50;66.70;;;;;;6057269;23;116085;-82
2023/01/06 05:15:16;;;;;;;5.97;3.05;;;5.50;66.70;;;;;;6081378;23;115819;-83
2023/01/06 05:17:43;;;;;;;5.85;3.10;;;5.50;67.10;;;;;;6082661;23;114174;-83
2023/01/06 05:20:11;;;;;;;7.82;3.55;;;5.60;67.00;;;;;;6082436;23;114362;-83
2023/01/06 05:22:38;;;;;;;9.73;3.70;;;5.60;66.90;;;;;;6057096;23;115041;-83
2023/01/06 05:25:06;;;;;;;6.43;4.10;;;5.50;67.00;;;;;;6081483;23;114494;-82
2023/01/06 05:27:33;;;;;;;8.07;3.58;;;5.60;66.90;;;;;;6082085;23;114530;-83
2023/01/06 05:30:00;;;;;;;5.43;3.20;;;5.60;67.10;;;;;;6057745;23;114358;-83
2023/01/06 05:32:29;;;;;;;6.03;3.22;;;5.60;67.00;;;;;;6081507;23;116042;-82
2023/01/06 05:34:56;;;;;;;7.65;3.42;;;5.60;67.00;;;;;;6072573;23;114553;-82
2023/01/06 05:37:26;;;;;;;8.75;3.70;;;5.60;66.90;;;;;;6090179;23;114655;-83
2023/01/06 05:39:55;;;;;;;5.95;3.30;;;5.60;66.80;;;;;;6034632;23;114287;-83
2023/01/06 05:42:23;;;;;;;7.70;3.92;;;5.60;67.00;;;;;;6083289;23;115099;-82
2023/01/06 05:44:50;;;;;;;6.70;3.67;;;5.60;66.90;;;;;;6082346;23;114510;-82
2023/01/06 05:47:17;;;;;;;8.60;3.63;;;5.60;67.00;;;;;;6083721;23;114605;-82
2023/01/06 05:49:44;;;;;;;7.85;3.40;;;5.60;67.10;;;;;;6082836;23;114470;-83
2023/01/06 05:52:13;;;;;;;8.27;3.72;;;5.60;67.10;;;;;;6056876;23;115048;-83
2023/01/06 05:54:41;;;;;;;7.93;3.75;;;5.60;66.90;;;;;;6081343;23;115079;-83
2023/01/06 05:57:09;;;;;;;6.93;3.60;;;5.60;67.00;;;;;;6082969;23;114772;-83
2023/01/06 05:59:37;;;;;;;7.50;4.20;;;5.60;67.10;;;;;;6083107;23;114943;-83
2023/01/06 06:02:04;;;;;;;8.13;4.13;;;5.60;67.10;;;;;;6056774;23;115170;-83
2023/01/06 06:04:31;;;;;;;8.93;4.85;;;5.60;67.10;;;;;;6082499;23;114794;-83
2023/01/06 06:06:58;;;;;;;8.60;4.38;;;5.70;67.10;;;;;;6083186;23;114440;-85
2023/01/06 06:09:26;;;;;;;7.63;4.20;;;5.70;66.90;;;;;;6057384;23;114433;-83
2023/01/06 06:11:53;;;;;;;7.00;4.18;;;5.70;66.90;;;;;;6082277;23;115143;-84
2023/01/06 06:14:21;;;;;;;8.80;3.97;;;5.70;66.90;;;;;;6081731;23;115120;-83
2023/01/06 06:16:48;;;;;;;6.35;3.83;;;5.70;66.80;;;;;;6081858;23;114276;-83
2023/01/06 06:19:17;;;;;;;5.78;3.45;;;5.70;66.90;;;;;;6081440;23;114596;-83
2023/01/06 06:21:44;;;;;;;7.53;4.30;;;5.70;67.00;;;;;;6080954;23;115494;-83
2023/01/06 06:24:13;;;;;;;8.05;3.83;;;5.60;66.80;;;;;;6056615;23;115114;-83
2023/01/06 06:26:41;;;;;;;6.85;3.75;;;5.60;66.60;;;;;;6009213;23;114412;-84
2023/01/06 06:29:10;;;;;;;7.07;3.58;;;5.70;66.70;;;;;;6080434;23;114776;-84
2023/01/06 06:31:37;;;;;;;11.57;5.35;;;5.70;66.70;;;;;;6006036;23;118210;-84
2023/01/06 06:34:05;;;;;;;9.18;4.03;;;5.70;67.00;;;;;;5982709;23;118569;-84
2023/01/06 06:36:32;;;;;;;8.85;4.18;;;5.70;66.70;;;;;;5984251;23;115682;-84
2023/01/06 06:39:00;;;;;;;6.50;3.53;;;5.70;66.60;;;;;;5984962;23;114653;-84
2023/01/06 06:41:28;;;;;;;7.80;3.83;;;5.70;66.60;;;;;;6008251;23;118433;-83
2023/01/06 06:43:55;;;;;;;8.52;3.72;;;5.70;66.50;;;;;;6031294;23;117788;-83
2023/01/06 06:46:22;;;;;;;8.75;3.95;;;5.70;66.50;;;;;;6008614;23;114551;-81
2023/01/06 06:48:50;;;;;;;7.40;4.05;;;5.70;67.30;;;;;;6080767;23;114412;-83
2023/01/06 06:51:19;;;;;;;8.35;4.22;;;5.70;66.80;;;;;;6079772;23;116366;-82
2023/01/06 06:53:49;;;;;;;6.90;3.97;;;5.70;66.50;;;;;;6079877;23;115916;-84
2023/01/06 06:56:19;;;;;;;7.93;4.20;;;5.70;66.50;;;;;;6081247;23;114471;-85
2023/01/06 06:58:53;;;;;;;8.60;4.03;;;5.70;66.50;;;;;;6081108;23;114249;-84
2023/01/06 07:01:24;;;;;;;7.43;4.07;;;5.70;66.30;;;;;;6055918;23;115594;-85
2023/01/06 07:03:55;;;;;;;9.25;4.35;;;5.70;66.40;;;;;;6008528;23;115122;-84
2023/01/06 07:06:30;;;;;;;15.38;6.13;;;5.70;66.50;;;;;;6035175;23;114639;-84
2023/01/06 07:08:58;;;;;;;13.10;6.05;;;5.60;66.30;;;;;;6057985;23;115441;-85
2023/01/06 07:11:27;;;;;;;11.73;5.63;;;5.60;66.30;;;;;;6079828;23;115211;-84
2023/01/06 07:13:58;;;;;;;11.55;5.75;;;5.60;66.50;;;;;;6056619;23;115930;-85
2023/01/06 07:16:37;;;;;;;7.38;4.50;;;5.70;66.50;;;;;;6038167;23;114710;-83
2023/01/06 07:19:08;;;;;;;9.57;4.72;;;5.60;66.30;;;;;;6060924;23;114556;-84
2023/01/06 07:21:37;;;;;;;8.02;4.95;;;5.60;66.10;;;;;;6070838;23;114902;-84
2023/01/06 07:24:04;;;;;;;11.75;5.47;;;5.60;66.00;;;;;;6091705;23;115813;-84
2023/01/06 07:26:32;;;;;;;10.50;5.47;;;5.50;66.20;;;;;;6087556;23;114106;-83
2023/01/06 07:28:59;;;;;;;11.82;6.22;;;5.40;66.60;;;;;;6085252;23;114350;-85
2023/01/06 07:31:26;;;;;;;11.32;5.90;;;5.50;66.60;;;;;;6081632;23;115079;-85
2023/01/06 07:33:54;;;;;;;11.27;7.20;;;5.60;66.70;;;;;;6083159;23;114623;-85
2023/01/06 07:36:21;;;;;;;13.90;7.40;;;5.60;66.70;;;;;;6033254;23;114421;-85
2023/01/06 07:38:48;;;;;;;16.60;8.30;;;5.60;66.50;;;;;;6058525;23;114866;-84
2023/01/06 07:41:15;;;;;;;16.45;8.27;;;5.60;66.50;;;;;;6081470;23;115167;-85
2023/01/06 07:43:43;;;;;;;15.85;8.38;;;5.60;66.50;;;;;;6032901;23;115958;-84
2023/01/06 07:46:10;;;;;;;15.30;7.28;;;5.60;66.40;;;;;;6082713;23;115218;-84
2023/01/06 07:48:37;;;;;;;14.10;7.97;;;5.60;66.20;;;;;;6058405;23;114643;-85
2023/01/06 07:51:05;;;;;;;13.20;7.30;;;5.60;66.30;;;;;;6057187;23;115672;-83
2023/01/06 07:53:34;;;;;;;10.20;6.20;;;5.60;66.50;;;;;;6081426;23;115020;-84
2023/01/06 07:56:04;;;;;;;13.48;6.45;;;5.60;66.10;;;;;;6081814;23;114900;-84
2023/01/06 07:58:31;;;;;;;14.60;6.47;;;5.50;66.30;;;;;;6057707;23;114338;-85
2023/01/06 08:01:05;;;;;;;13.43;7.18;;;5.50;66.50;;;;;;6080130;23;115612;-85
2023/01/06 08:03:32;;;;;;;12.50;7.00;;;5.50;66.60;;;;;;6081080;23;114824;-86
2023/01/06 08:06:09;;;;;;;11.35;6.22;;;5.60;66.50;;;;;;6081790;23;114726;-83
2023/01/06 08:08:40;;;;;;;14.05;7.13;;;5.60;66.30;;;;;;6057583;23;114466;-84
2023/01/06 08:11:12;;;;;;;8.80;5.30;;;5.60;66.40;;;;;;6080809;23;117494;-84
2023/01/06 08:13:39;;;;;;;10.70;4.88;;;5.60;66.10;;;;;;6032861;23;114802;-84
2023/01/06 08:16:10;;;;;;;9.27;4.68;;;5.60;66.00;;;;;;6033064;23;114260;-83
2023/01/06 08:18:40;;;;;;;8.07;4.90;;;5.60;65.70;;;;;;6033299;23;114551;-83
2023/01/06 08:21:10;;;;;;;10.93;6.05;;;5.60;65.70;;;;;;6033205;23;118091;-83
2023/01/06 08:23:44;;;;;;;9.50;4.80;;;5.60;65.70;;;;;;6079450;23;118408;-83
2023/01/06 08:26:14;;;;;;;8.87;4.90;;;5.60;65.20;;;;;;6034646;23;115746;-83
2023/01/06 08:28:42;;;;;;;7.13;4.35;;;5.50;65.40;;;;;;6034410;23;114634;-84
2023/01/06 08:31:14;;;;;;;8.77;3.95;;;5.50;65.70;;;;;;6081508;23;115100;-83
2023/01/06 08:33:41;;;;;;;8.98;4.00;;;5.60;65.60;;;;;;6082542;23;114597;-82
2023/01/06 08:36:12;;;;;;;7.00;4.07;;;5.60;65.00;;;;;;6083751;23;114575;-85
2023/01/06 08:38:40;;;;;;;7.75;4.38;;;5.60;65.10;;;;;;6009979;23;114417;-84
2023/01/06 08:41:07;;;;;;;11.32;4.20;;;5.70;65.40;;;;;;5985198;23;117485;-85
2023/01/06 08:43:44;;;;;;;7.72;4.72;;;5.70;65.10;;;;;;6057009;23;115164;-83
2023/01/06 08:46:17;;;;;;;9.55;5.03;;;5.80;64.60;;;;;;6083814;23;114802;-86
2023/01/06 08:48:48;;;;;;;11.32;4.93;;;5.90;64.60;;;;;;6035793;23;114596;-84
2023/01/06 08:51:24;;;;;;;9.35;5.57;;;5.90;64.40;;;;;;6059891;23;115207;-83
2023/01/06 08:53:52;;;;;;;11.48;4.70;;;6.00;64.20;;;;;;6037571;23;115476;-84
2023/01/06 08:56:29;;;;;;;12.05;5.28;;;6.00;64.10;;;;;;6058451;23;114681;-84
2023/01/06 08:58:59;;;;;;;12.13;6.47;;;6.00;64.10;;;;;;6034188;23;114383;-84
2023/01/06 09:01:36;;;;;;;12.23;7.00;;;6.00;64.20;;;;;;6081097;23;115016;-84
2023/01/06 09:04:05;;;;;;;13.15;7.05;;;6.10;64.20;;;;;;6081167;23;114575;-83
2023/01/06 09:06:37;;;;;;;12.13;7.28;;;6.10;64.10;;;;;;6084059;23;114194;-84
2023/01/06 09:09:10;;;;;;;16.17;10.30;;;6.20;64.00;;;;;;6064087;23;114666;-84
2023/01/06 09:11:44;;;;;;;19.40;10.65;;;6.20;63.90;;;;;;6073623;23;114707;-84
2023/01/06 09:14:14;;;;;;;19.13;10.07;;;6.10;63.60;;;;;;6041200;23;114261;-85
2023/01/06 09:16:42;;;;;;;18.00;10.05;;;5.90;64.10;;;;;;6086034;23;114483;-85
2023/01/06 09:19:11;;;;;;;16.95;10.90;;;5.80;64.80;;;;;;6010764;23;114529;-85
2023/01/06 09:21:42;;;;;;;21.13;11.73;;;5.90;64.90;;;;;;6056902;23;115050;-85
2023/01/06 09:24:13;;;;;;;20.17;11.63;;;5.90;64.50;;;;;;6033490;23;114563;-86
2023/01/06 09:26:40;;;;;;;18.85;11.98;;;5.80;64.70;;;;;;6009898;23;114538;-86
2023/01/06 09:29:08;;;;;;;20.48;11.60;;;5.70;64.80;;;;;;6034153;23;114500;-84
2023/01/06 09:31:53;;;;;;;19.90;11.48;;;5.80;65.00;;;;;;6061211;23;115124;-85
2023/01/06 09:34:24;;;;;;;16.63;10.85;;;5.80;65.00;;;;;;6081449;23;116047;-84
2023/01/06 09:36:51;;;;;;;21.40;11.55;;;5.80;64.70;;;;;;6083721;23;114336;-83
2023/01/06 09:39:19;;;;;;;18.17;10.70;;;5.80;64.90;;;;;;6083465;23;114320;-85
2023/01/06 09:42:26;;;;;;;20.17;10.57;;;5.70;65.10;;;;;;6056531;23;115130;-84
2023/01/06 09:45:15;;;;;;;16.05;10.25;;;5.70;64.90;;;;;;6056823;23;114599;-86
2023/01/06 09:48:04;;;;;;;15.80;9.48;;;5.70;64.90;;;;;;6015468;23;114692;-85
2023/01/06 09:50:39;;;;;;;18.70;10.60;;;5.60;64.60;;;;;;6034235;23;114476;-86
2023/01/06 09:53:19;;;;;;;19.70;10.18;;;5.60;65.00;;;;;;6057121;23;116853;-84
2023/01/06 09:55:49;;;;;;;20.25;11.05;;;5.50;65.20;;;;;;6034425;23;115127;-83
2023/01/06 09:58:30;;;;;;;18.95;10.05;;;5.50;65.60;;;;;;6034273;23;114303;-84
2023/01/06 10:01:15;;;;;;;18.38;9.90;;;5.60;65.60;;;;;;6037278;23;114795;-83
2023/01/06 10:03:58;;;;;;;14.88;8.20;;;5.70;65.30;;;;;;6038583;23;115366;-84
2023/01/06 10:06:38;;;;;;;16.33;9.00;;;5.80;64.70;;;;;;6080798;23;114594;-84
2023/01/06 10:09:50;;;;;;;17.48;9.00;;;5.70;65.00;;;;;;6009528;23;114318;-84
2023/01/06 10:12:43;;;;;;;15.68;7.85;;;5.80;64.50;;;;;;6077595;23;114533;-85
2023/01/06 10:15:50;;;;;;;12.80;7.75;;;5.70;64.50;;;;;;6066291;23;115061;-86
2023/01/06 10:18:54;;;;;;;14.15;8.38;;;5.60;65.00;;;;;;6041889;23;114559;-85
2023/01/06 10:21:56;;;;;;;12.27;7.38;;;5.60;64.40;;;;;;6019566;23;114311;-86
2023/01/06 10:24:31;;;;;;;13.70;8.23;;;5.60;64.80;;;;;;6072266;23;114776;-85
2023/01/06 10:27:18;;;;;;;12.65;8.20;;;5.60;65.10;;;;;;6079600;23;115142;-83
2023/01/06 10:29:47;;;;;;;13.88;8.93;;;5.60;65.40;;;;;;5998435;23;117213;-84
2023/01/06 10:32:33;;;;;;;14.35;7.93;;;5.80;65.30;;;;;;5956338;23;114320;-83
2023/01/06 10:35:13;;;;;;;13.68;8.50;;;5.90;64.70;;;;;;5949404;23;114489;-84
2023/01/06 10:37:47;;;;;;;14.10;8.55;;;6.00;64.70;;;;;;5905232;23;117890;-83
2023/01/06 10:40:36;;;;;;;13.02;7.95;;;6.10;64.90;;;;;;5951402;23;114716;-83
2023/01/06 10:43:22;;;;;;;16.73;9.40;;;6.20;64.50;;;;;;5907957;23;114395;-83
2023/01/06 10:45:53;;;;;;;16.05;8.65;;;6.40;64.70;;;;;;5945571;23;114778;-84
2023/01/06 10:48:27;;;;;;;13.70;8.23;;;6.50;63.90;;;;;;5944480;23;115398;-84
2023/01/06 10:50:59;;;;;;;11.35;7.72;;;6.60;63.90;;;;;;5899084;23;114757;-84
2023/01/06 10:53:31;;;;;;;13.85;8.07;;;6.70;63.90;;;;;;5920365;23;114902;-84
2023/01/06 10:56:01;;;;;;;13.00;7.72;;;6.70;63.80;;;;;;5920517;23;114153;-84
2023/01/06 10:59:00;;;;;;;11.85;7.38;;;6.90;63.10;;;;;;5941649;23;116317;-84
2023/01/06 11:01:28;;;;;;;13.20;8.70;;;6.90;62.70;;;;;;5920171;23;115798;-82
2023/01/06 11:04:11;;;;;;;13.07;7.80;;;6.80;63.00;;;;;;5985242;23;115260;-83
2023/01/06 11:07:01;;;;;;;13.32;8.25;;;7.00;62.90;;;;;;6019225;23;114438;-83
2023/01/06 11:09:39;;;;;;;13.45;7.75;;;6.90;62.90;;;;;;6053267;23;116132;-83
2023/01/06 11:12:21;;;;;;;12.35;6.13;;;7.00;62.90;;;;;;6046433;23;115016;-84
2023/01/06 11:15:01;;;;;;;8.73;5.38;;;7.10;62.70;;;;;;6053181;23;114543;-83
2023/01/06 11:17:29;;;;;;;7.25;4.80;;;7.20;62.40;;;;;;6058998;23;114382;-83
2023/01/06 11:20:25;;;;;;;7.50;4.88;;;7.20;62.10;;;;;;6033394;23;116097;-84
2023/01/06 11:22:53;;;;;;;8.40;5.13;;;7.30;61.80;;;;;;6062170;23;115121;-84
2023/01/06 11:25:20;;;;;;;8.35;4.55;;;7.30;61.90;;;;;;6057300;23;115175;-84
2023/01/06 11:28:14;;;;;;;8.30;5.10;;;7.40;61.80;;;;;;6084054;23;114413;-85
2023/01/06 11:30:55;;;;;;;;;;;7.50;61.50;;;;;;6057654;23;118184;-84
2023/01/06 11:33:31;;;;;;;17.00;5.78;;;7.30;62.30;;;;;;6059827;23;116297;-85
2023/01/06 11:36:11;;;;;;;11.82;4.85;;;7.30;61.90;;;;;;6036053;23;115579;-84
2023/01/06 11:38:44;;;;;;;16.88;6.07;;;7.40;61.50;;;;;;6058590;23;114466;-83
2023/01/06 11:41:27;;;;;;;9.07;4.80;;;7.40;61.70;;;;;;6056926;23;118892;-83
2023/01/06 11:43:56;;;;;;;10.23;4.60;;;7.50;61.60;;;;;;6012761;23;116123;-84
2023/01/06 11:46:31;;;;;;;9.25;5.43;;;7.50;61.40;;;;;;6035339;23;114259;-85
2023/01/06 11:49:03;;;;;;;15.07;6.60;;;7.50;61.30;;;;;;6038492;23;114477;-83
2023/01/06 11:51:55;;;;;;;8.82;5.47;;;7.60;61.30;;;;;;6009004;23;114353;-86
2023/01/06 11:54:38;;;;;;;13.75;6.20;;;7.60;61.30;;;;;;6062162;23;115200;-84
2023/01/06 11:57:51;;;;;;;10.90;6.55;;;7.60;61.30;;;;;;6080969;23;114434;-85
2023/01/06 12:00:48;;;;;;;10.10;5.63;;;7.70;61.20;;;;;;6061898;23;114297;-86
2023/01/06 12:03:18;;;;;;;8.07;6.28;;;7.70;61.40;;;;;;6059544;23;115027;-84
2023/01/06 12:06:04;;;;;;;12.45;7.57;;;7.70;61.10;;;;;;6082962;23;114650;-86
2023/01/06 12:09:08;;;;;;;15.32;8.98;;;7.60;61.30;;;;;;6059203;23;114740;-84
2023/01/06 12:11:57;;;;;;;15.77;8.65;;;7.60;61.80;;;;;;6062108;23;114391;-85
2023/01/06 12:14:32;;;;;;;17.15;10.32;;;7.50;61.60;;;;;;6081543;23;118004;-84
2023/01/06 12:17:50;;;;;;;16.58;10.00;;;7.50;61.70;;;;;;6035449;23;114753;-86
2023/01/06 12:20:29;;;;;;;13.20;9.00;;;7.40;62.10;;;;;;6078550;23;114558;-83
2023/01/06 12:23:04;;;;;;;16.02;9.82;;;7.20;62.00;;;;;;6058581;23;114564;-84
2023/01/06 12:25:34;;;;;;;;;;;7.20;62.40;;;;;;5964290;23;119064;-86
2023/01/06 12:28:12;;;;;;;11.75;7.38;;;7.20;62.00;;;;;;6081167;23;114706;-85
2023/01/06 12:31:07;;;;;;;11.75;7.88;;;7.00;62.30;;;;;;5989263;23;114686;-86
2023/01/06 12:33:46;;;;;;;12.68;8.10;;;6.90;62.60;;;;;;6012723;23;114853;-85
2023/01/06 12:36:41;;;;;;;11.90;7.53;;;6.90;62.80;;;;;;6008092;23;119470;-84
2023/01/06 12:39:41;;;;;;;10.70;7.03;;;6.80;62.90;;;;;;6018189;23;114864;-84
2023/01/06 12:42:28;;;;;;;9.55;6.15;;;6.90;63.10;;;;;;6052335;23;114552;-86
2023/01/06 12:45:02;;;;;;;8.40;5.68;;;7.00;62.70;;;;;;6058624;23;114628;-84
2023/01/06 12:47:44;;;;;;;11.13;6.78;;;6.90;62.80;;;;;;6034182;23;114959;-83
2023/01/06 12:50:32;;;;;;;10.15;6.63;;;7.00;62.90;;;;;;6047283;23;115284;-83
2023/01/06 12:53:24;;;;;;;10.60;5.93;;;7.00;62.60;;;;;;6100930;23;114498;-84
2023/01/06 12:56:21;;;;;;;8.80;5.15;;;6.90;62.90;;;;;;6093394;23;114463;-84
2023/01/06 12:59:16;;;;;;;9.90;5.32;;;7.00;62.80;;;;;;6072778;23;114349;-84
2023/01/06 13:02:33;;;;;;;9.55;6.00;;;7.00;63.00;;;;;;6088517;23;114601;-85
2023/01/06 13:05:32;;;;;;;14.02;6.72;;;7.10;63.00;;;;;;5936226;23;114404;-84
2023/01/06 13:08:34;;;;;;;10.93;6.60;;;7.20;63.30;;;;;;6065000;23;114450;-84
2023/01/06 13:12:04;;;;;;;12.35;7.40;;;7.20;63.30;;;;;;6083479;23;115098;-84
2023/01/06 13:15:09;;;;;;;11.65;7.40;;;7.30;63.00;;;;;;6006771;23;118048;-84
2023/01/06 13:18:02;;;;;;;13.13;8.57;;;7.30;63.10;;;;;;6065002;23;114497;-84
2023/01/06 13:20:50;;;;;;;14.13;9.90;;;7.30;63.10;;;;;;6063362;23;114628;-84
2023/01/06 13:24:07;;;;;;;18.92;10.32;;;7.40;63.10;;;;;;6058772;23;115284;-85
2023/01/06 13:26:52;;;;;;;13.85;10.00;;;7.30;63.10;;;;;;5992798;23;114513;-84
2023/01/06 13:29:53;;;;;;;16.90;9.90;;;7.30;63.30;;;;;;6035081;23;114314;-84
2023/01/06 13:33:05;;;;;;;15.52;8.85;;;7.30;63.20;;;;;;6057571;23;114371;-83
2023/01/06 13:36:00;;;;;;;16.25;9.70;;;7.20;63.00;;;;;;6082573;23;116557;-83